Time;durP1;ratioP1;P1;durP2;ratioP2;P2;SDS_P1;SDS_P2;PMS_P1;PMS_P2;Temp;Humidity;BMP_temperature;BMP_pressure;BME280_temperature;BME280_humidity;BME280_pressure;Samples;Min_cycle;Max_cycle;Signal;HPM_P1;HPM_P2
2022/09/11 00:00:03;;;;;;;;;;;;;;;-142.75;100.00;77111.66;5047753;28;19925;-68
2022/09/11 00:02:29;;;;;;;;;;;;;;;-142.75;100.00;77109.69;5041850;28;19967;-66
2022/09/11 00:04:54;;;;;;;;;;;;;;;-142.75;100.00;77099.84;5045877;28;19917;-67
2022/09/11 00:07:19;;;;;;;;;;;;;;;-142.75;100.00;77078.19;5047770;28;19913;-66
2022/09/11 00:09:45;;;;;;;;;;;;;;;-142.75;100.00;77074.25;5046354;28;19971;-67
2022/09/11 00:12:11;;;;;;;;;;;;;;;-142.75;100.00;77076.22;5051701;28;20004;-67
2022/09/11 00:14:36;;;;;;;;;;;;;;;-142.75;100.00;77068.34;5048558;28;19924;-67
2022/09/11 00:17:02;;;;;;;;;;;;;;;-142.75;100.00;77056.53;5049446;28;20332;-67
2022/09/11 00:19:27;;;;;;;;;;;;;;;-142.75;100.00;77044.72;5047841;28;19919;-67
2022/09/11 00:21:55;;;;;;;;;;;;;;;-142.75;100.00;77034.88;5048940;28;19913;-64
2022/09/11 00:24:20;;;;;;;;;;;;;;;-142.75;100.00;77046.69;5049819;28;19912;-66
2022/09/11 00:26:46;;;;;;;;;;;;;;;-142.75;100.00;77078.19;5049331;28;20459;-66
2022/09/11 00:29:11;;;;;;;;;;;;;;;-142.75;100.00;77101.81;5045900;28;19924;-66
2022/09/11 00:31:37;;;;;;;;;;;;;;;-142.75;100.00;77109.69;5044828;28;19913;-66
2022/09/11 00:34:02;;;;;;;;;;;;;;;-142.75;100.00;77097.88;5048368;28;19913;-66
2022/09/11 00:36:29;;;;;;;;;;;;;;;-142.75;100.00;77090.00;5050146;28;19916;-66
2022/09/11 00:38:55;;;;;;;;;;;;;;;-142.75;100.00;77074.25;5051399;28;19919;-66
2022/09/11 00:41:40;;;;;;;;;;;;;;;-142.75;100.00;77080.16;5072995;22;19924;-69
2022/09/11 00:44:06;;;;;;;;;;;;;;;-142.75;100.00;77078.19;5051253;28;19970;-69
2022/09/11 00:46:42;;;;;;;;;;;;;;;-142.75;100.00;77068.34;5049546;28;19921;-69
2022/09/11 00:49:10;;;;;;;;;;;;;;;-142.75;100.00;77058.50;5049533;28;19917;-70
2022/09/11 00:51:37;;;;;;;;;;;;;;;-142.75;100.00;77048.66;5070316;28;20306;-69
2022/09/11 00:54:03;;;;;;;;;;;;;;;-142.75;100.00;77050.63;5071156;28;19920;-69
2022/09/11 00:56:30;;;;;;;;;;;;;;;-142.75;100.00;77058.50;5055262;28;19978;-69
2022/09/11 00:58:56;;;;;;;;;;;;;;;-142.75;100.00;77054.56;5053111;28;19912;-69
2022/09/11 01:01:21;;;;;;;;;;;;;;;-142.75;100.00;77048.66;5070321;28;19925;-70
2022/09/11 01:03:47;;;;;;;;;;;;;;;-142.75;100.00;77056.53;5053794;28;19927;-71
2022/09/11 01:06:13;;;;;;;;;;;;;;;-142.75;100.00;77070.31;5053675;28;19913;-71
2022/09/11 01:08:39;;;;;;;;;;;;;;;-142.75;100.00;77064.41;5053480;28;19913;-71
2022/09/11 01:11:19;;;;;;;;;;;;;;;-142.75;100.00;77056.53;5054602;28;20004;-71
2022/09/11 01:14:01;;;;;;;;;;;;;;;-142.75;100.00;77044.72;5054785;28;19913;-71
2022/09/11 01:16:48;;;;;;;;;;;;;;;-142.75;100.00;77034.88;5054822;28;19912;-71
2022/09/11 01:19:31;;;;;;;;;;;;;;;-142.75;100.00;77046.69;5054658;28;20086;-71
2022/09/11 01:22:03;;;;;;;;;;;;;;;-142.75;100.00;77040.78;5050443;28;19967;-71
2022/09/11 01:24:47;;;;;;;;;;;;;;;-142.75;100.00;77040.78;5052829;28;19917;-71
2022/09/11 01:27:30;;;;;;;;;;;;;;;-142.75;100.00;77056.53;5053416;28;20018;-71
2022/09/11 01:30:00;;;;;;;;;;;;;;;-142.75;100.00;77070.31;5052705;28;19921;-71
2022/09/11 01:32:31;;;;;;;;;;;;;;;-142.75;100.00;77082.13;5068132;28;19913;-71
2022/09/11 01:34:56;;;;;;;;;;;;;;;-142.75;100.00;77078.19;5053582;28;19965;-71
2022/09/11 01:37:25;;;;;;;;;;;;;;;-142.75;100.00;77097.88;5053578;28;19913;-71
2022/09/11 01:39:58;;;;;;;;;;;;;;;-142.75;100.00;77111.66;5057432;28;19917;-71
2022/09/11 01:42:23;;;;;;;;;;;;;;;-142.75;100.00;77101.81;5056714;28;19909;-71
2022/09/11 01:44:53;;;;;;;;;;;;;;;-142.75;100.00;77101.81;5056285;28;20317;-71
2022/09/11 01:47:19;;;;;;;;;;;;;;;-142.75;100.00;77076.22;5056121;28;19917;-71
2022/09/11 01:49:46;;;;;;;;;;;;;;;-142.75;100.00;77070.31;5055067;28;19939;-71
2022/09/11 01:52:15;;;;;;;;;;;;;;;-142.75;100.00;77062.44;5056679;28;19912;-71
2022/09/11 01:54:43;;;;;;;;;;;;;;;-142.75;100.00;77074.25;5056897;28;19916;-71
2022/09/11 01:57:18;;;;;;;;;;;;;;;-142.75;100.00;77072.28;5056411;28;20317;-71
2022/09/11 01:59:46;;;;;;;;;;;;;;;-142.75;100.00;77082.13;5056526;28;19913;-71
2022/09/11 02:02:12;;;;;;;;;;;;;;;-142.75;100.00;77072.28;5057300;28;19967;-71
2022/09/11 02:04:40;;;;;;;;;;;;;;;-142.75;100.00;77090.00;5056866;28;19913;-71
2022/09/11 02:07:11;;;;;;;;;;;;;;;-142.75;100.00;77076.22;5056550;28;20011;-71
2022/09/11 02:09:39;;;;;;;;;;;;;;;-142.75;100.00;77062.44;5056621;28;19924;-71
2022/09/11 02:12:07;;;;;;;;;;;;;;;-142.75;100.00;77082.13;5055489;28;19917;-71
2022/09/11 02:14:38;;;;;;;;;;;;;;;-142.75;100.00;77091.97;5056737;28;19951;-71
2022/09/11 02:17:14;;;;;;;;;;;;;;;-142.75;100.00;77078.19;5071901;28;20383;-71
2022/09/11 02:19:40;;;;;;;;;;;;;;;-142.75;100.00;77062.44;5056214;28;19917;-71
2022/09/11 02:22:06;;;;;;;;;;;;;;;-142.75;100.00;77058.50;5036972;28;19915;-71
2022/09/11 02:24:32;;;;;;;;;;;;;;;-142.75;100.00;77054.56;5056591;28;19913;-71
2022/09/11 02:27:00;;;;;;;;;;;;;;;-142.75;100.00;77066.38;5056660;28;19920;-71
2022/09/11 02:29:25;;;;;;;;;;;;;;;-142.75;100.00;77095.91;5056417;28;19920;-71
2022/09/11 02:31:51;;;;;;;;;;;;;;;-142.75;100.00;77109.69;5038319;28;19913;-71
2022/09/11 02:34:19;;;;;;;;;;;;;;;-142.75;100.00;77121.50;5056218;28;19913;-71
2022/09/11 02:36:56;;;;;;;;;;;;;;;-142.75;100.00;77113.63;5056187;28;19920;-71
2022/09/11 02:39:21;;;;;;;;;;;;;;;-142.75;100.00;77109.69;5055460;28;19913;-71
2022/09/11 02:41:54;;;;;;;;;;;;;;;-142.75;100.00;77117.56;5056240;28;20272;-71
2022/09/11 02:44:41;;;;;;;;;;;;;;;-142.75;100.00;77129.38;5056531;28;20394;-71
2022/09/11 02:47:09;;;;;;;;;;;;;;;-142.75;100.00;77135.28;5055794;28;19917;-71
2022/09/11 02:49:42;;;;;;;;;;;;;;;-142.75;100.00;77149.06;5055752;28;19928;-71
2022/09/11 02:52:30;;;;;;;;;;;;;;;-142.75;100.00;77164.81;5071051;28;19912;-71
2022/09/11 02:55:01;;;;;;;;;;;;;;;-142.75;100.00;77164.81;5056417;28;19916;-71
2022/09/11 02:57:26;;;;;;;;;;;;;;;-142.75;100.00;77168.75;5056398;28;19916;-71
2022/09/11 02:59:54;;;;;;;;;;;;;;;-142.75;100.00;77153.00;5056359;28;19912;-71
2022/09/11 03:02:19;;;;;;;;;;;;;;;-142.75;100.00;77158.91;5038495;28;19917;-71
2022/09/11 03:04:45;;;;;;;;;;;;;;;-142.75;100.00;77147.09;5056694;28;19920;-71
2022/09/11 03:07:10;;;;;;;;;;;;;;;-142.75;100.00;77151.03;5055559;28;19917;-71
2022/09/11 03:09:35;;;;;;;;;;;;;;;-142.75;100.00;77149.06;5054610;28;19943;-71
2022/09/11 03:12:02;;;;;;;;;;;;;;;-142.75;100.00;77145.13;5037723;28;20375;-71
2022/09/11 03:14:27;;;;;;;;;;;;;;;-142.75;100.00;77153.00;5055165;28;19919;-71
2022/09/11 03:16:53;;;;;;;;;;;;;;;-142.75;100.00;77164.81;5054153;28;19999;-71
2022/09/11 03:19:18;;;;;;;;;;;;;;;-142.75;100.00;77188.44;5055161;28;19919;-71
2022/09/11 03:21:43;;;;;;;;;;;;;;;-142.75;100.00;77208.13;5055327;28;20011;-71
2022/09/11 03:24:08;;;;;;;;;;;;;;;-142.75;100.00;77208.13;5055044;28;20386;-71
2022/09/11 03:26:34;;;;;;;;;;;;;;;-142.75;100.00;77214.03;5054910;28;19923;-71
2022/09/11 03:29:00;;;;;;;;;;;;;;;-142.75;100.00;77206.16;5053543;28;20478;-71
2022/09/11 03:31:25;;;;;;;;;;;;;;;-142.75;100.00;77212.06;5054432;28;20409;-71
2022/09/11 03:33:51;;;;;;;;;;;;;;;-142.75;100.00;77214.03;5054859;28;20301;-71
2022/09/11 03:36:16;;;;;;;;;;;;;;;-142.75;100.00;77227.81;5055322;28;20007;-71
2022/09/11 03:38:41;;;;;;;;;;;;;;;-142.75;100.00;77231.75;5054527;28;19920;-71
2022/09/11 03:41:08;;;;;;;;;;;;;;;-142.75;100.00;77237.66;5037322;28;19916;-71
2022/09/11 03:43:33;;;;;;;;;;;;;;;-142.75;100.00;77241.59;5036700;28;20008;-71
2022/09/11 03:45:59;;;;;;;;;;;;;;;-142.75;100.00;77216.00;5055285;28;19982;-71
2022/09/11 03:48:24;;;;;;;;;;;;;;;-142.75;100.00;77196.31;5070171;28;20309;-71
2022/09/11 03:50:49;;;;;;;;;;;;;;;-142.75;100.00;77186.47;5036908;28;20659;-71
2022/09/11 03:53:15;;;;;;;;;;;;;;;-142.75;100.00;77172.69;5054845;28;19919;-71
2022/09/11 03:55:40;;;;;;;;;;;;;;;-142.75;100.00;77188.44;5054988;28;20004;-71
2022/09/11 03:58:08;;;;;;;;;;;;;;;-142.75;100.00;77200.25;5054974;28;19919;-71
2022/09/11 04:00:35;;;;;;;;;;;;;;;-142.75;100.00;77184.50;5069572;28;19913;-71
2022/09/11 04:03:00;;;;;;;;;;;;;;;-142.75;100.00;77168.75;5036923;28;19917;-71
2022/09/11 04:05:26;;;;;;;;;;;;;;;-142.75;100.00;77186.47;5055092;28;20000;-71
2022/09/11 04:07:52;;;;;;;;;;;;;;;-142.75;100.00;77186.47;5069662;28;19913;-71
2022/09/11 04:10:18;;;;;;;;;;;;;;;-142.75;100.00;77192.38;5054353;28;19924;-71
2022/09/11 04:12:44;;;;;;;;;;;;;;;-142.75;100.00;77178.59;5054517;28;20390;-71
2022/09/11 04:15:09;;;;;;;;;;;;;;;-142.75;100.00;77208.13;5069658;28;19912;-71
2022/09/11 04:17:35;;;;;;;;;;;;;;;-142.75;100.00;77233.72;5054149;28;20402;-71
2022/09/11 04:20:00;;;;;;;;;;;;;;;-142.75;100.00;77216.00;5054265;28;19917;-71
2022/09/11 04:22:25;;;;;;;;;;;;;;;-142.75;100.00;77214.03;5053936;28;20008;-71
2022/09/11 04:24:50;;;;;;;;;;;;;;;-142.75;100.00;77198.28;5054051;28;20390;-71
2022/09/11 04:27:17;;;;;;;;;;;;;;;-142.75;100.00;77217.97;5053934;28;19912;-71
2022/09/11 04:29:45;;;;;;;;;;;;;;;-142.75;100.00;77208.13;5053622;28;20140;-72
2022/09/11 04:32:10;;;;;;;;;;;;;;;-142.75;100.00;77204.19;5054068;28;19959;-71
2022/09/11 04:34:36;;;;;;;;;;;;;;;-142.75;100.00;77192.38;5036388;28;19916;-71
2022/09/11 04:37:02;;;;;;;;;;;;;;;-142.75;100.00;77196.31;5053856;28;20441;-71
2022/09/11 04:39:28;;;;;;;;;;;;;;;-142.75;100.00;77202.22;5036600;28;19975;-71
2022/09/11 04:41:54;;;;;;;;;;;;;;;-142.75;100.00;77200.25;5054038;28;20325;-71
2022/09/11 04:44:19;;;;;;;;;;;;;;;-142.75;100.00;77237.66;5054457;28;19962;-71
2022/09/11 04:46:44;;;;;;;;;;;;;;;-142.75;100.00;77239.63;5053721;28;20011;-71
2022/09/11 04:49:10;;;;;;;;;;;;;;;-142.75;100.00;77245.53;5054030;28;19912;-72
2022/09/11 04:51:37;;;;;;;;;;;;;;;-142.75;100.00;77243.56;5053536;28;19924;-71
2022/09/11 04:54:03;;;;;;;;;;;;;;;-142.75;100.00;77255.38;5053916;28;19913;-71
2022/09/11 04:56:29;;;;;;;;;;;;;;;-142.75;100.00;77286.88;5054069;28;19928;-71
2022/09/11 04:58:55;;;;;;;;;;;;;;;-142.75;100.00;77275.06;5069097;28;20003;-71
2022/09/11 05:01:21;;;;;;;;;;;;;;;-142.75;100.00;77265.22;5053391;28;19955;-71
2022/09/11 05:03:47;;;;;;;;;;;;;;;-142.75;100.00;77261.28;5052428;28;19913;-71
2022/09/11 05:06:15;;;;;;;;;;;;;;;-142.75;100.00;77271.13;5053551;28;20012;-71
2022/09/11 05:08:40;;;;;;;;;;;;;;;-142.75;100.00;77280.97;5053452;28;20352;-71
2022/09/11 05:11:06;;;;;;;;;;;;;;;-142.75;100.00;77277.03;5053181;28;19917;-71
2022/09/11 05:13:32;;;;;;;;;;;;;;;-142.75;100.00;77282.94;5053304;28;19913;-71
2022/09/11 05:16:03;;;;;;;;;;;;;;;-142.75;100.00;77294.75;5052956;28;19913;-71
2022/09/11 05:18:29;;;;;;;;;;;;;;;-142.75;100.00;77294.75;5053091;28;19978;-71
2022/09/11 05:21:01;;;;;;;;;;;;;;;-142.75;100.00;77316.41;5053493;28;19917;-71
2022/09/11 05:23:27;;;;;;;;;;;;;;;-142.75;100.00;77338.06;5069577;28;19920;-71
2022/09/11 05:25:59;;;;;;;;;;;;;;;-142.75;100.00;77326.25;5053549;28;20007;-71
2022/09/11 05:28:25;;;;;;;;;;;;;;;-142.75;100.00;77318.38;5053126;28;19913;-71
2022/09/11 05:30:52;;;;;;;;;;;;;;;-142.75;100.00;77322.31;5053140;28;20271;-71
2022/09/11 05:33:17;;;;;;;;;;;;;;;-142.75;100.00;77310.50;5052933;28;19920;-71
2022/09/11 05:35:43;;;;;;;;;;;;;;;-142.75;100.00;77294.75;5053270;28;20370;-71
2022/09/11 05:38:09;;;;;;;;;;;;;;;-142.75;100.00;77296.72;5067852;28;19920;-71
2022/09/11 05:40:35;;;;;;;;;;;;;;;-142.75;100.00;77312.47;5051803;28;19921;-71
2022/09/11 05:43:00;;;;;;;;;;;;;;;-142.75;100.00;77310.50;5052020;28;19919;-71
2022/09/11 05:45:25;;;;;;;;;;;;;;;-142.75;100.00;77310.50;5051913;28;19940;-71
2022/09/11 05:47:51;;;;;;;;;;;;;;;-142.75;100.00;77347.91;5051614;28;19935;-71
2022/09/11 05:50:16;;;;;;;;;;;;;;;-142.75;100.00;77342.00;5051605;28;19921;-71
2022/09/11 05:52:42;;;;;;;;;;;;;;;-142.75;100.00;77306.56;5051832;28;19919;-71
2022/09/11 05:55:07;;;;;;;;;;;;;;;-142.75;100.00;77279.00;5051770;28;19917;-71
2022/09/11 05:57:32;;;;;;;;;;;;;;;-142.75;100.00;77259.31;5051476;28;19913;-71
2022/09/11 05:59:57;;;;;;;;;;;;;;;-142.75;100.00;77231.75;5051651;28;20275;-71
2022/09/11 06:02:22;;;;;;;;;;;;;;;-142.75;100.00;77208.13;5051727;28;20341;-71
2022/09/11 06:04:48;;;;;;;;;;;;;;;-142.75;100.00;77192.38;5051611;28;19924;-71
2022/09/11 06:07:13;;;;;;;;;;;;;;;-142.75;100.00;77184.50;5051409;28;19930;-70
2022/09/11 06:09:38;;;;;;;;;;;;;;;-142.75;100.00;77184.50;5051596;28;19916;-71
2022/09/11 06:12:04;;;;;;;;;;;;;;;-142.75;100.00;77174.66;5051679;28;19912;-71
2022/09/11 06:14:29;;;;;;;;;;;;;;;-142.75;100.00;77170.72;5034106;28;20439;-71
2022/09/11 06:16:55;;;;;;;;;;;;;;;-142.75;100.00;77149.06;5051421;28;19998;-71
2022/09/11 06:19:21;;;;;;;;;;;;;;;-142.75;100.00;77133.31;5051507;28;19912;-71
2022/09/11 06:21:46;;;;;;;;;;;;;;;-142.75;100.00;77099.84;5051674;28;20082;-71
2022/09/11 06:24:11;;;;;;;;;;;;;;;-142.75;100.00;77078.19;5054400;28;20396;-71
2022/09/11 06:26:36;;;;;;;;;;;;;;;-142.75;100.00;77050.63;5055076;28;19921;-70
2022/09/11 06:29:02;;;;;;;;;;;;;;;-142.75;100.00;77032.91;5055401;28;19983;-71
2022/09/11 06:31:27;;;;;;;;;;;;;;;-142.75;100.00;77011.25;5054967;28;19916;-71
2022/09/11 06:33:52;;;;;;;;;;;;;;;-142.75;100.00;76987.63;5054893;28;20007;-71
2022/09/11 06:36:19;;;;;;;;;;;;;;;-142.75;100.00;76944.31;5055079;28;19948;-71
2022/09/11 06:38:44;;;;;;;;;;;;;;;-142.75;100.00;76899.03;5054712;28;20008;-70
2022/09/11 06:41:12;;;;;;;;;;;;;;;-142.75;100.00;76877.38;5063354;23;20391;-66
2022/09/11 06:43:38;;;;;;;;;;;;;;;-142.75;100.00;76857.69;5033422;28;19980;-66
2022/09/11 06:46:09;;;;;;;;;;;;;;;-142.75;100.00;76834.06;5033948;28;19925;-67
2022/09/11 06:48:34;;;;;;;;;;;;;;;-142.75;100.00;76810.44;5034429;28;19917;-67
2022/09/11 06:51:03;;;;;;;;;;;;;;;-142.75;100.00;76814.38;5034329;28;19918;-67
2022/09/11 06:53:28;;;;;;;;;;;;;;;-142.75;100.00;76818.31;5034945;28;20286;-67
2022/09/11 06:55:57;;;;;;;;;;;;;;;-142.75;100.00;76790.78;5034603;28;19917;-67
2022/09/11 06:58:22;;;;;;;;;;;;;;;-142.75;100.00;76769.13;5034205;28;19949;-67
2022/09/11 07:00:48;;;;;;;;;;;;;;;-142.75;100.00;76751.41;5034483;28;19952;-67
2022/09/11 07:03:13;;;;;;;;;;;;;;;-142.75;100.00;76733.69;5034426;28;20268;-67
2022/09/11 07:05:44;;;;;;;;;;;;;;;-142.75;100.00;76733.69;5033000;28;20428;-67
2022/09/11 07:08:10;;;;;;;;;;;;;;;-142.75;100.00;76721.88;5034077;28;19919;-68
2022/09/11 07:10:35;;;;;;;;;;;;;;;-142.75;100.00;76708.09;5034144;28;19917;-67
2022/09/11 07:13:00;;;;;;;;;;;;;;;-142.75;100.00;76658.88;5032883;28;20389;-67
2022/09/11 07:15:25;;;;;;;;;;;;;;;-142.75;100.00;76641.16;5034159;28;19913;-68
2022/09/11 07:17:50;;;;;;;;;;;;;;;-142.75;100.00;76619.50;5033871;28;19917;-67
2022/09/11 07:20:16;;;;;;;;;;;;;;;-142.75;100.00;76603.75;5032690;28;20434;-67
2022/09/11 07:22:44;;;;;;;;;;;;;;;-142.75;100.00;76562.41;5033901;28;19913;-68
2022/09/11 07:25:09;;;;;;;;;;;;;;;-142.75;100.00;76542.72;5034014;28;19920;-67
2022/09/11 07:27:35;;;;;;;;;;;;;;;-142.75;100.00;76556.50;5032418;28;19913;-67
2022/09/11 07:30:00;;;;;;;;;;;;;;;-142.75;100.00;76525.03;5033848;28;19917;-67
2022/09/11 07:32:26;;;;;;;;;;;;;;;-142.75;100.00;76542.72;5033796;28;19913;-68
2022/09/11 07:34:51;;;;;;;;;;;;;;;-142.75;100.00;76511.25;5031220;28;19986;-67
2022/09/11 07:37:16;;;;;;;;;;;;;;;-142.75;100.00;76523.06;5033550;28;19920;-68
2022/09/11 07:39:41;;;;;;;;;;;;;;;-142.75;100.00;76511.25;5033804;28;19913;-68
2022/09/11 07:42:06;;;;;;;;;;;;;;;-142.75;100.00;76495.50;5033606;28;19917;-68
2022/09/11 07:44:35;;;;;;;;;;;;;;;-142.75;100.00;76527.00;5033649;28;19913;-68
2022/09/11 07:47:00;;;;;;;;;;;;;;;-142.75;100.00;76503.38;5033331;28;19913;-68
2022/09/11 07:49:26;;;;;;;;;;;;;;;-142.75;100.00;76489.59;5033405;28;19933;-68
2022/09/11 07:51:51;;;;;;;;;;;;;;;-142.75;100.00;76493.53;5033477;28;19923;-68
2022/09/11 07:54:16;;;;;;;;;;;;;;;-142.75;100.00;76495.50;5033457;28;20012;-68
2022/09/11 07:56:43;;;;;;;;;;;;;;;-142.75;100.00;76456.13;5033216;28;20035;-68
2022/09/11 07:59:08;;;;;;;;;;;;;;;-142.75;100.00;76448.25;5032062;28;19959;-69
2022/09/11 08:01:33;;;;;;;;;;;;;;;-142.75;100.00;76412.81;5032044;28;20298;-68
2022/09/11 08:04:00;;;;;;;;;;;;;;;-142.75;100.00;76379.34;5033073;28;19913;-68
2022/09/11 08:06:26;;;;;;;;;;;;;;;-142.75;100.00;76381.31;5032948;28;19956;-67
2022/09/11 08:08:56;;;;;;;;;;;;;;;-142.75;100.00;76379.34;5032654;28;19917;-68
2022/09/11 08:11:21;;;;;;;;;;;;;;;-142.75;100.00;76357.69;5048251;28;19921;-68
2022/09/11 08:13:50;;;;;;;;;;;;;;;-142.75;100.00;76361.63;5032970;28;19913;-68
2022/09/11 08:16:16;;;;;;;;;;;;;;;-142.75;100.00;76341.97;5032936;28;20017;-68
2022/09/11 08:18:41;;;;;;;;;;;;;;;-142.75;100.00;76302.59;5031287;28;20016;-68
2022/09/11 08:21:08;;;;;;;;;;;;;;;-142.75;100.00;76328.19;5032939;28;19976;-68
2022/09/11 08:23:34;;;;;;;;;;;;;;;-142.75;100.00;76310.47;5032845;28;20039;-68
2022/09/11 08:26:38;;;;;;;;;;;;;;;-142.75;100.00;76298.66;5032945;28;19920;-68
2022/09/11 08:29:04;;;;;;;;;;;;;;;-142.75;100.00;76247.47;4994302;28;20056;-68
2022/09/11 08:31:29;;;;;;;;;;;;;;;-142.75;100.00;76231.72;5010615;28;19956;-68
2022/09/11 08:33:55;;;;;;;;;;;;;;;-142.75;100.00;76215.97;5020733;28;19913;-68
2022/09/11 08:36:21;;;;;;;;;;;;;;;-142.75;100.00;76204.16;5032472;28;19913;-68
2022/09/11 08:38:47;;;;;;;;;;;;;;;-142.75;100.00;76174.66;5032363;28;20449;-68
2022/09/11 08:41:31;;;;;;;;;;;;;;;-142.75;100.00;76206.13;5032400;28;19917;-68
2022/09/11 08:44:01;;;;;;;;;;;;;;;-142.75;100.00;76271.09;5031592;28;20321;-68
2022/09/11 08:46:30;;;;;;;;;;;;;;;-142.75;100.00;76231.72;5030744;28;19913;-68
2022/09/11 08:49:02;;;;;;;;;;;;;;;-142.75;100.00;76215.97;5032096;28;20363;-68
2022/09/11 08:51:30;;;;;;;;;;;;;;;-142.75;100.00;76257.31;5032237;28;20012;-67
2022/09/11 08:53:55;;;;;;;;;;;;;;;-142.75;100.00;76239.59;5032384;28;20003;-68
2022/09/11 08:56:22;;;;;;;;;;;;;;;-142.75;100.00;76188.44;5032411;28;19959;-68
2022/09/11 08:59:10;;;;;;;;;;;;;;;-142.75;100.00;76188.44;5030591;28;19913;-68
2022/09/11 09:01:38;;;;;;;;;;;;;;;-142.75;100.00;76166.78;5030147;28;19925;-68
2022/09/11 09:04:20;;;;;;;;;;;;;;;-142.75;100.00;76143.16;5032323;28;19913;-68
2022/09/11 09:07:03;;;;;;;;;;;;;;;-142.75;100.00;76111.66;5032026;28;20336;-68
2022/09/11 09:09:55;;;;;;;;;;;;;;;-142.75;100.00;76121.50;5032204;28;20007;-68
2022/09/11 09:12:40;;;;;;;;;;;;;;;-142.75;100.00;76044.75;5028715;28;19940;-68
2022/09/11 09:15:23;;;;;;;;;;;;;;;-142.75;100.00;76034.91;5032180;28;19956;-67
2022/09/11 09:17:52;;;;;;;;;;;;;;;-142.75;100.00;76060.50;5031278;28;20470;-67
2022/09/11 09:20:24;;;;;;;;;;;;;;;-142.75;100.00;76048.69;5031474;28;19913;-67
2022/09/11 09:23:01;;;;;;;;;;;;;;;-142.75;100.00;76025.06;5031693;28;19957;-67
2022/09/11 09:25:27;;;;;;;;;;;;;;;-142.75;100.00;76042.78;5030841;28;19921;-67
2022/09/11 09:28:00;;;;;;;;;;;;;;;-142.75;100.00;75960.13;5031282;28;20391;-67
2022/09/11 09:30:27;;;;;;;;;;;;;;;-142.75;100.00;75995.53;5024626;28;20458;-68
2022/09/11 09:33:24;;;;;;;;;;;;;;;-142.75;100.00;75966.00;5025216;28;19917;-68
2022/09/11 09:35:50;;;;;;;;;;;;;;;-142.75;100.00;75983.72;4997481;28;19956;-68
2022/09/11 09:38:18;;;;;;;;;;;;;;;-142.75;100.00;76048.69;5029675;28;20011;-68
2022/09/11 09:41:02;;;;;;;;;;;;;;;-142.75;100.00;76101.81;5031242;28;19913;-68
2022/09/11 09:43:30;;;;;;;;;;;;;;;-142.75;100.00;76109.69;5031105;28;19913;-68
2022/09/11 09:46:06;;;;;;;;;;;;;;;-142.75;100.00;76188.44;5031227;28;19959;-68
2022/09/11 09:48:34;;;;;;;;;;;;;;;-142.75;100.00;76133.31;5043130;28;20414;-68
2022/09/11 09:51:02;;;;;;;;;;;;;;;-142.75;100.00;76088.03;5031195;28;19917;-68
2022/09/11 09:53:31;;;;;;;;;;;;;;;-142.75;100.00;76156.94;5031100;28;19953;-67
2022/09/11 09:55:57;;;;;;;;;;;;;;;-142.75;100.00;76113.63;5031326;28;19920;-68
2022/09/11 09:58:26;;;;;;;;;;;;;;;-142.75;100.00;76046.72;5032463;28;19920;-68
2022/09/11 10:00:51;;;;;;;;;;;;;;;-142.75;100.00;75993.56;5035073;28;19917;-68
2022/09/11 10:03:20;;;;;;;;;;;;;;;-142.75;100.00;75924.69;5034882;28;19919;-67
2022/09/11 10:05:47;;;;;;;;;;;;;;;-142.75;100.00;75877.44;5034783;28;19919;-67
2022/09/11 10:08:25;;;;;;;;;;;;;;;-142.75;100.00;75897.13;5034592;28;20470;-67
2022/09/11 10:10:57;;;;;;;;;;;;;;;-142.75;100.00;75908.94;5033276;28;19917;-68
2022/09/11 10:13:24;;;;;;;;;;;;;;;-142.75;100.00;75830.22;5034726;28;19924;-68
2022/09/11 10:15:50;;;;;;;;;;;;;;;-142.75;100.00;75794.78;5034938;28;19991;-68
2022/09/11 10:18:28;;;;;;;;;;;;;;;-142.75;96.58;75771.16;5034506;28;20371;-68
2022/09/11 10:21:11;;;;;;;;;;;;;;;-142.75;94.90;75790.84;5034558;28;19913;-68
2022/09/11 10:24:06;;;;;;;;;;;;;;;-142.75;94.81;75755.44;5034186;28;20292;-68
2022/09/11 10:26:38;;;;;;;;;;;;;;;-142.75;93.37;75720.00;5015457;28;19921;-69
2022/09/11 10:29:10;;;;;;;;;;;;;;;-142.75;97.45;75820.38;5017822;28;19918;-68
2022/09/11 10:31:38;;;;;;;;;;;;;;;-142.75;100.00;75920.75;5034366;28;19917;-68
2022/09/11 10:34:04;;;;;;;;;;;;;;;-142.75;100.00;75834.16;5023954;28;20019;-67
2022/09/11 10:36:30;;;;;;;;;;;;;;;-142.75;100.00;75781.00;5028098;28;20277;-67
2022/09/11 10:38:57;;;;;;;;;;;;;;;-142.75;95.83;75779.03;5034033;28;19917;-68
2022/09/11 10:41:24;;;;;;;;;;;;;;;-142.75;99.15;75763.28;5030847;28;19924;-68
2022/09/11 10:44:16;;;;;;;;;;;;;;;-142.75;97.96;75751.50;5033335;28;20440;-68
2022/09/11 10:46:42;;;;;;;;;;;;;;;-142.75;95.65;75806.59;5012617;28;20386;-67
2022/09/11 10:49:14;;;;;;;;;;;;;;;-142.75;97.83;75906.97;5025088;28;19924;-67
2022/09/11 10:51:40;;;;;;;;;;;;;;;-142.75;100.00;75881.38;5033090;28;20375;-67
2022/09/11 10:54:21;;;;;;;;;;;;;;;-142.75;98.20;75800.69;5034392;28;20390;-67
2022/09/11 10:56:57;;;;;;;;;;;;;;;-142.75;93.72;75753.47;5034184;28;19959;-67
2022/09/11 10:59:27;;;;;;;;;;;;;;;-142.75;87.55;75751.50;5034255;28;19967;-67
2022/09/11 11:01:52;;;;;;;;;;;;;;;-142.75;98.35;75767.22;5034016;28;20441;-67
2022/09/11 11:04:18;;;;;;;;;;;;;;;-142.75;89.58;75708.19;5032745;28;19944;-67
2022/09/11 11:06:59;;;;;;;;;;;;;;;-142.75;86.47;75710.16;5033623;28;20398;-67
2022/09/11 11:09:39;;;;;;;;;;;;;;;-142.75;88.38;75720.00;5032745;28;19921;-67
2022/09/11 11:12:13;;;;;;;;;;;;;;;-142.75;91.40;75775.09;5034282;28;19921;-67
2022/09/11 11:14:50;;;;;;;;;;;;;;;-142.75;98.22;75816.44;5028183;28;20004;-67
2022/09/11 11:17:35;;;;;;;;;;;;;;;-142.75;100.00;75867.59;5027656;28;19917;-67
2022/09/11 11:20:08;;;;;;;;;;;;;;;-142.75;100.00;75975.84;5033375;28;19913;-68
2022/09/11 11:22:52;;;;;;;;;;;;;;;-142.75;100.00;75960.13;5030024;28;19913;-67
2022/09/11 11:25:26;;;;;;;;;;;;;;;-142.75;100.00;75967.97;5028419;28;19917;-67
2022/09/11 11:27:59;;;;;;;;;;;;;;;-142.75;100.00;75960.13;5017395;28;20268;-67
2022/09/11 11:30:35;;;;;;;;;;;;;;;-142.75;100.00;75869.56;5020898;28;20012;-66
2022/09/11 11:33:10;;;;;;;;;;;;;;;-142.75;98.41;75818.41;5033949;28;20001;-66
2022/09/11 11:35:43;;;;;;;;;;;;;;;-142.75;99.11;75798.72;5019147;28;20054;-67
2022/09/11 11:38:13;;;;;;;;;;;;;;;-142.75;89.32;75765.25;5020254;28;20271;-67
2022/09/11 11:40:41;;;;;;;;;;;;;;;-142.75;90.19;75741.66;5027440;28;19994;-67
2022/09/11 11:43:10;;;;;;;;;;;;;;;-142.75;96.19;75720.00;5029785;28;19913;-67
2022/09/11 11:45:41;;;;;;;;;;;;;;;-142.75;96.44;75660.97;5032243;28;19913;-67
2022/09/11 11:48:12;;;;;;;;;;;;;;;-142.75;81.17;75627.50;5031640;28;19913;-66
2022/09/11 11:50:43;;;;;;;;;;;;;;;-142.75;94.17;75767.22;5031822;28;19917;-66
2022/09/11 11:53:14;;;;;;;;;;;;;;;-142.75;100.00;75885.31;5031593;28;19913;-67
2022/09/11 11:55:58;;;;;;;;;;;;;;;-142.75;100.00;75905.00;5025523;28;19914;-67
2022/09/11 11:58:42;;;;;;;;;;;;;;;-142.75;100.00;75889.25;5023966;28;19918;-66
2022/09/11 12:01:12;;;;;;;;;;;;;;;-142.75;100.00;75889.25;5014040;28;19971;-66
2022/09/11 12:03:41;;;;;;;;;;;;;;;-142.75;98.90;75861.69;5023905;28;19928;-67
2022/09/11 12:06:07;;;;;;;;;;;;;;;-142.75;95.28;75877.44;5031725;28;19913;-67
2022/09/11 12:08:39;;;;;;;;;;;;;;;-142.75;100.00;75934.53;5022508;28;19917;-67
2022/09/11 12:11:06;;;;;;;;;;;;;;;-142.75;99.24;75938.47;5018548;28;20417;-67
2022/09/11 12:13:34;;;;;;;;;;;;;;;-142.75;100.00;75991.59;5028013;28;19983;-68
2022/09/11 12:16:02;;;;;;;;;;;;;;;-142.75;100.00;76015.22;5019028;28;20339;-67
2022/09/11 12:18:28;;;;;;;;;;;;;;;-142.75;100.00;75985.69;5014786;28;19924;-67
2022/09/11 12:21:13;;;;;;;;;;;;;;;-142.75;100.00;75920.75;5016574;28;19922;-67
2022/09/11 12:23:46;;;;;;;;;;;;;;;-142.75;98.26;75920.75;5015939;28;19913;-67
2022/09/11 12:26:14;;;;;;;;;;;;;;;-142.75;99.62;75973.88;5018940;28;19920;-67